createdAt,value
2018-11-22T00:00:23.356Z,25.72
2018-11-22T00:08:40.353Z,28.85
2018-11-22T00:17:52.457Z,27.07
2018-11-22T00:26:17.421Z,26.50
2018-11-22T00:28:46.173Z,28.57
2018-11-22T00:31:14.460Z,27.07
2018-11-22T00:33:42.679Z,25.57
2018-11-22T00:36:16.066Z,27.10
2018-11-22T00:38:46.540Z,28.47
2018-11-22T00:41:15.580Z,25.85
2018-11-22T00:43:51.918Z,27.55
2018-11-22T00:49:57.196Z,26.62
2018-11-22T00:52:26.983Z,27.00
2018-11-22T01:01:38.380Z,28.15
2018-11-22T01:04:11.688Z,28.50
2018-11-22T01:06:39.737Z,28.92
2018-11-22T01:09:10.780Z,27.00
2018-11-22T01:11:38.935Z,26.57
2018-11-22T01:14:07.033Z,28.50
2018-11-22T01:16:35.105Z,28.17
2018-11-22T01:19:03.284Z,27.10
2018-11-22T01:21:31.445Z,28.77
2018-11-22T01:23:59.559Z,27.17
2018-11-22T01:26:27.696Z,27.13
2018-11-22T01:28:55.872Z,29.27
2018-11-22T01:31:23.976Z,28.42
2018-11-22T01:33:52.060Z,27.13
2018-11-22T01:36:20.197Z,30.62
2018-11-22T01:38:48.328Z,27.70
2018-11-22T01:41:16.386Z,26.73
2018-11-22T01:43:44.559Z,27.20
2018-11-22T01:46:12.625Z,27.77
2018-11-22T01:48:40.762Z,28.20
2018-11-22T01:51:08.767Z,25.80
2018-11-22T01:53:37.070Z,26.95
2018-11-22T01:56:05.746Z,27.77
2018-11-22T01:58:33.877Z,28.45
2018-11-22T02:01:01.931Z,27.95
2018-11-22T02:03:30.009Z,27.93
2018-11-22T02:05:58.196Z,29.42
2018-11-22T02:08:26.256Z,28.87
2018-11-22T02:10:54.325Z,28.77
2018-11-22T02:13:22.399Z,26.90
2018-11-22T02:15:50.443Z,28.90
2018-11-22T02:18:18.578Z,27.07
2018-11-22T02:20:46.714Z,28.83
2018-11-22T02:23:14.857Z,28.25
2018-11-22T02:25:42.941Z,27.75
2018-11-22T02:28:10.995Z,28.25
2018-11-22T02:30:39.063Z,28.17
2018-11-22T02:33:07.128Z,28.10
2018-11-22T02:35:35.211Z,29.02
2018-11-22T02:38:03.309Z,27.32
2018-11-22T02:40:31.410Z,25.30
2018-11-22T02:42:59.485Z,28.25
2018-11-22T02:45:28.639Z,28.90
2018-11-22T02:47:56.771Z,27.80
2018-11-22T02:50:25.367Z,28.30
2018-11-22T02:52:54.258Z,28.42
2018-11-22T02:55:22.335Z,27.90
2018-11-22T02:57:50.424Z,28.90
2018-11-22T03:00:57.157Z,26.95
2018-11-22T03:03:25.166Z,30.72
2018-11-22T03:05:53.249Z,29.87
2018-11-22T03:08:21.310Z,29.30
2018-11-22T03:10:49.421Z,28.07
2018-11-22T03:13:18.877Z,29.02
2018-11-22T03:15:46.969Z,29.98
2018-11-22T03:18:15.039Z,28.45
2018-11-22T03:20:43.109Z,27.77
2018-11-22T03:23:11.176Z,29.63
2018-11-22T03:25:39.247Z,31.00
2018-11-22T03:28:07.345Z,30.90
2018-11-22T03:30:35.438Z,27.07
2018-11-22T03:33:03.510Z,28.95
2018-11-22T03:35:31.594Z,29.87
2018-11-22T03:37:59.675Z,28.70
2018-11-22T03:40:28.064Z,30.20
2018-11-22T03:42:56.133Z,31.60
2018-11-22T03:45:25.044Z,26.70
2018-11-22T03:47:53.120Z,28.75
2018-11-22T03:50:22.711Z,30.00
2018-11-22T03:52:52.005Z,30.08
2018-11-22T03:55:20.304Z,26.82
2018-11-22T03:57:48.764Z,29.20
2018-11-22T04:00:21.045Z,28.55
2018-11-22T04:02:49.516Z,29.07
2018-11-22T04:05:19.123Z,27.10
2018-11-22T04:07:47.230Z,29.12
2018-11-22T04:10:16.836Z,27.87
2018-11-22T04:12:44.896Z,25.77
2018-11-22T04:15:13.591Z,27.10
2018-11-22T04:17:41.679Z,26.27
2018-11-22T04:20:12.040Z,25.00
2018-11-22T04:22:40.213Z,24.80
2018-11-22T04:25:09.216Z,25.88
2018-11-22T04:27:37.401Z,26.15
2018-11-22T04:30:27.112Z,28.02
2018-11-22T04:32:55.225Z,23.70
2018-11-22T04:35:23.764Z,24.30
2018-11-22T04:37:51.875Z,22.20
2018-11-22T04:40:21.198Z,21.70
2018-11-22T04:42:49.988Z,18.70
2018-11-22T04:45:18.462Z,19.73
2018-11-22T04:47:47.361Z,20.92
2018-11-22T04:50:16.958Z,21.17
2018-11-22T04:52:45.051Z,20.23
2018-11-22T04:55:13.140Z,20.40
2018-11-22T04:57:41.251Z,17.92
2018-11-22T05:00:28.927Z,18.60
2018-11-22T05:02:57.019Z,18.23
2018-11-22T05:05:26.489Z,20.12
2018-11-22T05:07:54.643Z,18.92
2018-11-22T05:10:41.825Z,17.35
2018-11-22T05:13:09.882Z,19.10
2018-11-22T05:15:37.949Z,21.48
2018-11-22T05:18:06.058Z,18.32
2018-11-22T05:20:34.178Z,18.15
2018-11-22T05:23:02.263Z,18.17
2018-11-22T05:25:30.330Z,19.27
2018-11-22T05:28:17.859Z,19.48
2018-11-22T05:30:45.929Z,18.98
2018-11-22T05:33:14.028Z,19.50
2018-11-22T05:35:42.201Z,20.57
2018-11-22T05:38:10.306Z,18.90
2018-11-22T05:40:38.365Z,19.70
2018-11-22T05:43:06.469Z,18.12
2018-11-22T05:45:34.614Z,19.17
2018-11-22T05:48:02.695Z,17.85
2018-11-22T05:50:31.613Z,19.37
2018-11-22T05:53:01.339Z,19.48
2018-11-22T05:55:29.428Z,20.20
2018-11-22T05:57:57.595Z,17.57
2018-11-22T06:00:27.168Z,18.73
2018-11-22T06:02:55.872Z,18.35
2018-11-22T06:05:25.359Z,20.55
2018-11-22T06:07:54.089Z,20.75
2018-11-22T06:10:23.553Z,18.57
2018-11-22T06:12:52.591Z,20.45
2018-11-22T06:15:20.700Z,21.52
2018-11-22T06:17:49.522Z,20.20
2018-11-22T06:20:19.218Z,21.70
2018-11-22T06:22:47.606Z,19.80
2018-11-22T06:25:16.701Z,21.45
2018-11-22T06:27:45.075Z,19.87
2018-11-22T06:30:15.816Z,21.20
2018-11-22T06:32:44.396Z,20.90
2018-11-22T06:35:12.490Z,19.82
2018-11-22T06:37:40.799Z,21.60
2018-11-22T06:40:10.412Z,20.72
2018-11-22T06:42:38.926Z,22.10
2018-11-22T06:45:09.818Z,23.12
2018-11-22T06:47:37.927Z,21.80
2018-11-22T06:50:06.944Z,20.70
2018-11-22T06:52:35.048Z,21.60
2018-11-22T06:55:03.212Z,21.07
2018-11-22T06:57:31.389Z,21.40
2018-11-22T06:59:59.589Z,23.95
2018-11-22T07:02:27.725Z,19.67
2018-11-22T07:04:55.762Z,22.75
2018-11-22T07:07:23.839Z,23.52
2018-11-22T07:09:52.124Z,21.82
2018-11-22T07:12:20.205Z,23.60
2018-11-22T07:14:48.679Z,21.75
2018-11-22T07:17:16.756Z,23.77
2018-11-22T07:19:44.917Z,21.10
2018-11-22T07:22:18.857Z,23.77
2018-11-22T07:24:41.100Z,23.62
2018-11-22T07:27:09.239Z,26.20
2018-11-22T07:29:37.341Z,25.40
2018-11-22T07:32:05.884Z,23.35
2018-11-22T07:34:33.968Z,24.35
2018-11-22T07:37:02.037Z,24.35
2018-11-22T07:39:30.128Z,24.12
2018-11-22T07:41:58.191Z,25.30
2018-11-22T07:44:26.281Z,23.00
2018-11-22T07:46:56.716Z,24.52
2018-11-22T07:49:24.827Z,25.75
2018-11-22T07:51:53.038Z,25.65
2018-11-22T07:54:21.558Z,25.77
2018-11-22T07:56:49.670Z,25.32
2018-11-22T07:59:17.752Z,24.85
2018-11-22T08:01:45.827Z,27.50
2018-11-22T08:04:13.943Z,25.72
2018-11-22T08:06:42.014Z,24.35
2018-11-22T08:09:10.178Z,26.87
2018-11-22T08:14:31.558Z,25.05
2018-11-22T08:16:59.649Z,24.70
2018-11-22T08:19:27.714Z,23.83
2018-11-22T08:21:55.845Z,24.63
2018-11-22T08:24:23.919Z,25.02
2018-11-22T08:26:52.004Z,23.38
2018-11-22T08:29:20.081Z,24.55
2018-11-22T08:31:48.170Z,23.75
2018-11-22T08:34:16.266Z,24.12
2018-11-22T08:36:44.378Z,25.70
2018-11-22T08:39:12.432Z,25.55
2018-11-22T08:44:07.872Z,27.35
2018-11-22T08:46:35.986Z,26.37
2018-11-22T08:49:04.104Z,24.47
2018-11-22T08:51:32.172Z,24.92
2018-11-22T08:54:19.677Z,24.12
2018-11-22T08:56:48.157Z,26.17
2018-11-22T08:59:16.272Z,24.87
2018-11-22T09:02:03.789Z,23.55
2018-11-22T09:04:51.319Z,23.10
2018-11-22T09:07:19.468Z,23.55
2018-11-22T09:09:47.510Z,25.10
2018-11-22T09:12:15.598Z,24.05
2018-11-22T09:14:43.664Z,23.60
2018-11-22T09:17:11.753Z,23.20
2018-11-22T09:19:39.813Z,25.05
2018-11-22T09:22:07.927Z,27.80
2018-11-22T09:24:36.650Z,24.72
2018-11-22T09:27:04.776Z,24.57
2018-11-22T09:29:33.887Z,24.20
2018-11-22T09:32:00.929Z,25.50
2018-11-22T09:34:28.996Z,23.95
2018-11-22T09:36:57.188Z,24.65
2018-11-22T09:39:25.279Z,24.27
2018-11-22T09:41:53.338Z,24.07
2018-11-22T09:44:21.441Z,23.22
2018-11-22T09:46:49.533Z,25.35
2018-11-22T09:49:17.613Z,24.18
2018-11-22T09:51:45.695Z,22.82
2018-11-22T09:54:13.768Z,26.17
2018-11-22T09:56:41.849Z,22.67
2018-11-22T09:59:09.967Z,22.35
2018-11-22T10:01:38.012Z,24.25
2018-11-22T10:04:06.284Z,21.75
2018-11-22T10:06:34.365Z,25.17
2018-11-22T10:09:02.506Z,22.70
2018-11-22T10:11:30.531Z,22.02
2018-11-22T10:13:58.627Z,21.90
2018-11-22T10:16:26.714Z,23.18
2018-11-22T10:18:54.842Z,23.10
2018-11-22T10:21:22.907Z,22.32
2018-11-22T10:23:51.050Z,21.37
2018-11-22T10:26:19.117Z,19.92
2018-11-22T10:28:47.199Z,21.10
2018-11-22T10:31:15.224Z,20.50
2018-11-22T10:33:43.400Z,20.35
2018-11-22T10:36:11.492Z,20.90
2018-11-22T10:38:39.591Z,21.20
2018-11-22T10:41:07.759Z,18.67
2018-11-22T10:43:35.834Z,19.35
2018-11-22T10:46:03.896Z,17.15
2018-11-22T10:48:31.985Z,16.20
2018-11-22T10:51:00.133Z,16.97
2018-11-22T10:53:28.224Z,19.45
2018-11-22T10:55:56.280Z,16.02
2018-11-22T10:58:24.427Z,17.42
2018-11-22T11:01:11.594Z,16.48
2018-11-22T11:03:58.816Z,16.00
2018-11-22T11:06:46.024Z,17.50
2018-11-22T11:09:14.146Z,18.37
2018-11-22T11:11:42.233Z,18.57
2018-11-22T11:14:10.310Z,15.78
2018-11-22T11:16:38.406Z,14.93
2018-11-22T11:19:06.548Z,14.43
2018-11-22T11:21:34.624Z,15.03
2018-11-22T11:24:02.710Z,12.55
2018-11-22T11:26:30.798Z,12.60
2018-11-22T11:28:58.873Z,11.90
2018-11-22T11:31:26.943Z,13.62
2018-11-22T11:33:55.072Z,11.53
2018-11-22T11:36:23.140Z,11.80
2018-11-22T11:38:51.239Z,11.70
2018-11-22T11:41:19.441Z,12.10
2018-11-22T11:43:47.707Z,12.13
2018-11-22T11:49:12.007Z,13.43
2018-11-22T11:51:40.080Z,11.70
2018-11-22T11:54:08.165Z,11.20
2018-11-22T11:56:36.295Z,11.60
2018-11-22T11:59:04.620Z,12.35
2018-11-22T12:01:32.659Z,12.25
2018-11-22T12:04:00.764Z,12.50
2018-11-22T12:06:28.893Z,11.22
2018-11-22T12:08:56.974Z,11.30
2018-11-22T12:11:25.045Z,10.38
2018-11-22T12:13:53.418Z,11.68
2018-11-22T12:16:21.509Z,10.40
2018-11-22T12:18:49.612Z,11.18
2018-11-22T12:21:17.728Z,11.15
2018-11-22T12:23:45.811Z,10.48
2018-11-22T12:26:13.886Z,9.78
2018-11-22T12:28:41.992Z,10.38
2018-11-22T12:31:10.130Z,11.50
2018-11-22T12:33:38.148Z,11.05
2018-11-22T12:36:25.621Z,10.70
2018-11-22T12:38:53.709Z,11.75
2018-11-22T12:41:21.773Z,11.08
2018-11-22T12:43:49.868Z,11.18
2018-11-22T12:46:17.947Z,10.23
2018-11-22T12:48:46.023Z,11.75
2018-11-22T12:51:14.149Z,11.08
2018-11-22T12:53:42.240Z,11.80
2018-11-22T12:56:10.307Z,11.43
2018-11-22T12:58:38.393Z,10.98
2018-11-22T13:01:06.449Z,11.08
2018-11-22T13:03:34.551Z,9.98
2018-11-22T13:06:02.645Z,11.22
2018-11-22T13:08:30.765Z,11.70
2018-11-22T13:10:58.828Z,9.35
2018-11-22T13:13:26.903Z,9.90
2018-11-22T13:15:54.968Z,10.75
2018-11-22T13:18:23.049Z,10.18
2018-11-22T13:20:51.124Z,11.10
2018-11-22T13:23:19.195Z,10.15
2018-11-22T13:25:47.303Z,12.82
2018-11-22T13:28:15.396Z,10.25
2018-11-22T13:30:43.478Z,10.78
2018-11-22T13:33:11.615Z,10.58
2018-11-22T13:35:39.737Z,10.80
2018-11-22T13:38:07.845Z,11.20
2018-11-22T13:40:35.978Z,11.25
2018-11-22T13:43:04.351Z,10.05
2018-11-22T13:45:32.463Z,10.00
2018-11-22T13:48:00.549Z,10.90
2018-11-22T13:50:30.176Z,10.25
2018-11-22T13:53:20.461Z,10.55
2018-11-22T13:55:45.484Z,11.08
2018-11-22T13:58:13.571Z,10.95
2018-11-22T14:00:41.669Z,11.63
2018-11-22T14:03:09.773Z,11.48
2018-11-22T14:05:37.867Z,11.33
2018-11-22T14:08:05.969Z,10.45
2018-11-22T14:10:34.061Z,12.25
2018-11-22T14:13:02.210Z,11.35
2018-11-22T14:15:31.289Z,11.25
2018-11-22T14:18:18.480Z,11.18
2018-11-22T14:20:46.562Z,10.78
2018-11-22T14:23:14.657Z,11.50
2018-11-22T14:25:49.021Z,11.12
2018-11-22T14:28:11.015Z,10.68
2018-11-22T14:30:39.026Z,11.00
2018-11-22T14:33:07.103Z,11.03
2018-11-22T14:35:35.215Z,10.23
2018-11-22T14:38:03.357Z,9.63
2018-11-22T14:40:32.352Z,11.25
2018-11-22T14:43:00.628Z,11.57
2018-11-22T14:45:29.519Z,10.98
2018-11-22T14:47:58.634Z,11.00
2018-11-22T14:50:47.459Z,11.93
2018-11-22T14:53:35.770Z,11.85
2018-11-22T14:56:03.865Z,11.15
2018-11-22T14:58:31.915Z,13.05
2018-11-22T15:01:00.053Z,10.50
2018-11-22T15:03:28.105Z,11.68
2018-11-22T15:05:56.272Z,11.85
2018-11-22T15:08:24.332Z,12.18
2018-11-22T15:10:52.538Z,15.18
2018-11-22T15:13:20.649Z,13.90
2018-11-22T15:15:48.736Z,18.27
2018-11-22T15:18:16.940Z,15.78
2018-11-22T15:20:45.079Z,15.80
2018-11-22T15:23:13.143Z,15.23
2018-11-22T15:25:41.206Z,16.82
2018-11-22T15:28:09.281Z,16.00
2018-11-22T15:30:37.480Z,16.62
2018-11-22T15:33:05.813Z,17.90
2018-11-22T15:35:33.917Z,17.95
2018-11-22T15:38:02.051Z,18.42
2018-11-22T15:40:30.128Z,16.48
2018-11-22T15:42:59.837Z,17.32
2018-11-22T15:45:34.782Z,17.32
2018-11-22T15:47:56.735Z,17.90
2018-11-22T15:50:26.094Z,18.42
2018-11-22T15:52:54.295Z,16.45
2018-11-22T15:55:22.975Z,17.32
2018-11-22T15:57:52.492Z,16.65
2018-11-22T16:00:42.976Z,15.83
2018-11-22T16:03:11.099Z,16.48
2018-11-22T16:05:39.199Z,16.48
2018-11-22T16:08:07.303Z,16.45
2018-11-22T16:10:36.354Z,19.80
2018-11-22T16:13:23.892Z,18.40
2018-11-22T16:15:55.073Z,18.48
2018-11-22T16:18:23.423Z,16.35
2018-11-22T16:20:51.488Z,16.52
2018-11-22T16:23:19.587Z,17.23
2018-11-22T16:25:47.680Z,17.00
2018-11-22T16:28:15.794Z,19.05
2018-11-22T16:30:44.302Z,18.65
2018-11-22T16:33:12.421Z,17.50
2018-11-22T16:35:40.577Z,17.92
2018-11-22T16:38:08.710Z,19.27
2018-11-22T16:40:36.760Z,18.12
2018-11-22T16:43:04.975Z,18.10
2018-11-22T16:45:34.440Z,19.30
2018-11-22T16:48:21.949Z,18.50
2018-11-22T16:50:50.020Z,18.45
2018-11-22T16:53:18.091Z,17.25
2018-11-22T16:55:46.212Z,18.07
2018-11-22T16:58:14.314Z,18.55
2018-11-22T17:00:42.391Z,18.55
2018-11-22T17:03:12.281Z,19.37
2018-11-22T17:05:40.955Z,18.52
2018-11-22T17:08:09.563Z,17.98
2018-11-22T17:10:38.194Z,19.10
2018-11-22T17:13:06.458Z,20.97
2018-11-22T17:15:35.876Z,18.05
2018-11-22T17:18:04.614Z,20.17
2018-11-22T17:20:33.142Z,17.17
2018-11-22T17:23:01.742Z,19.62
2018-11-22T17:25:31.133Z,18.50
2018-11-22T17:28:00.652Z,20.00
2018-11-22T17:30:47.839Z,18.20
2018-11-22T17:33:16.000Z,19.75
2018-11-22T17:35:44.085Z,19.02
2018-11-22T17:38:12.965Z,19.92
2018-11-22T17:40:42.599Z,18.57
2018-11-22T17:43:10.736Z,17.85
2018-11-22T17:45:40.199Z,17.05
2018-11-22T17:48:08.575Z,18.45
2018-11-22T17:50:38.506Z,18.10
2018-11-22T17:53:07.312Z,16.02
2018-11-22T17:55:35.649Z,16.05
2018-11-22T17:58:03.764Z,18.35
2018-11-22T18:00:51.003Z,20.45
2018-11-22T18:03:19.431Z,18.80
2018-11-22T18:05:47.837Z,17.92
2018-11-22T18:08:15.935Z,17.35
2018-11-22T18:10:44.338Z,17.55
2018-11-22T18:13:12.446Z,18.05
2018-11-22T18:15:59.835Z,21.02
2018-11-22T18:18:28.997Z,21.68
2018-11-22T18:20:57.625Z,17.90
2018-11-22T18:23:27.260Z,18.20
2018-11-22T18:26:20.833Z,18.20
2018-11-22T18:28:49.101Z,23.45
2018-11-22T18:31:20.447Z,26.37
2018-11-22T18:40:11.600Z,22.17
2018-11-22T18:42:45.470Z,18.92
2018-11-22T18:45:39.581Z,18.75
2018-11-22T18:48:09.456Z,19.30
2018-11-22T18:50:40.938Z,18.02
2018-11-22T18:53:12.499Z,20.68
2018-11-22T18:59:24.510Z,24.43
2018-11-22T19:01:55.455Z,21.10
2018-11-22T19:04:22.387Z,19.15
2018-11-22T19:06:51.318Z,16.25
2018-11-22T19:09:19.634Z,21.35
2018-11-22T19:12:07.791Z,18.17
2018-11-22T19:14:38.275Z,18.40
2018-11-22T19:17:08.411Z,18.42
2018-11-22T19:19:40.547Z,18.52
2018-11-22T19:22:09.957Z,25.23
2018-11-22T19:24:38.508Z,19.92
2018-11-22T19:27:14.643Z,23.02
2018-11-22T19:29:44.076Z,25.20
2018-11-22T19:32:20.538Z,17.20
2018-11-22T19:34:49.979Z,16.75
2018-11-22T19:37:20.405Z,18.50
2018-11-22T19:40:08.281Z,17.48
2018-11-22T19:42:39.557Z,18.85
2018-11-22T19:45:13.606Z,19.23
2018-11-22T19:47:42.778Z,17.98
2018-11-22T19:56:43.162Z,19.48
2018-11-22T20:05:11.725Z,23.40
2018-11-22T20:07:44.408Z,24.55
2018-11-22T20:10:33.727Z,22.62
2018-11-22T20:16:26.889Z,19.87
2018-11-22T20:18:56.415Z,21.95
2018-11-22T20:21:25.309Z,25.50
2018-11-22T20:23:54.952Z,22.20
2018-11-22T20:26:23.665Z,21.52
2018-11-22T20:29:16.128Z,22.42
2018-11-22T20:31:44.418Z,22.80
2018-11-22T20:34:14.733Z,23.27
2018-11-22T20:40:16.092Z,19.50
2018-11-22T20:42:46.326Z,21.45
2018-11-22T20:49:09.625Z,21.57
2018-11-22T20:54:45.071Z,20.32
2018-11-22T20:57:15.776Z,21.90
2018-11-22T20:59:46.862Z,21.40
2018-11-22T21:14:08.101Z,20.52
2018-11-22T21:16:41.956Z,19.73
2018-11-22T21:19:13.311Z,24.20
2018-11-22T21:21:50.161Z,24.50
2018-11-22T21:24:21.386Z,28.50
2018-11-22T21:27:08.640Z,21.50
2018-11-22T21:32:49.455Z,21.93
2018-11-22T21:35:20.399Z,22.22
2018-11-22T21:37:50.064Z,20.30
2018-11-22T21:40:32.449Z,26.42
2018-11-22T21:43:00.890Z,28.12
2018-11-22T21:45:31.852Z,25.23
2018-11-22T21:48:00.653Z,24.32
2018-11-22T21:50:29.687Z,43.38
2018-11-22T21:53:17.882Z,28.00
2018-11-22T21:58:43.973Z,19.82
2018-11-22T22:02:10.177Z,25.82
2018-11-22T22:11:21.105Z,21.42
2018-11-22T22:22:27.017Z,24.45
2018-11-22T22:24:59.437Z,22.98
2018-11-22T22:27:28.619Z,22.50
2018-11-22T22:29:59.729Z,23.70
2018-11-22T22:33:11.167Z,21.97
2018-11-22T22:35:40.343Z,22.82
2018-11-22T22:38:37.653Z,20.52
2018-11-22T22:41:10.760Z,23.60
2018-11-22T22:43:39.311Z,19.32
2018-11-22T22:46:10.562Z,20.15
2018-11-22T22:48:39.027Z,22.40
2018-11-22T22:51:07.616Z,20.52
2018-11-22T22:53:41.837Z,20.62
2018-11-22T22:56:19.538Z,20.70
2018-11-22T22:58:48.475Z,20.32
2018-11-22T23:01:16.723Z,21.70
2018-11-22T23:03:45.319Z,20.72
2018-11-22T23:06:19.707Z,20.20
2018-11-22T23:08:48.815Z,20.40
2018-11-22T23:16:44.878Z,20.68
2018-11-22T23:19:13.059Z,21.33
2018-11-22T23:21:44.156Z,23.67
2018-11-22T23:24:16.217Z,21.90
2018-11-22T23:26:44.537Z,21.33
2018-11-22T23:29:13.120Z,19.85
2018-11-22T23:31:41.661Z,21.42
2018-11-22T23:34:32.234Z,20.37
2018-11-22T23:37:00.535Z,22.25
2018-11-22T23:39:28.938Z,21.87
2018-11-22T23:42:00.188Z,21.23
2018-11-22T23:44:28.396Z,21.30
2018-11-22T23:46:59.772Z,19.35
2018-11-22T23:49:28.021Z,22.07
2018-11-22T23:51:56.679Z,19.20
2018-11-22T23:54:28.446Z,19.45
2018-11-22T23:56:56.998Z,18.75
2018-11-22T23:59:44.732Z,20.37
